Have a Safe July 4th! 

Flight Track Log - Related Links

Times and Time Zones

All times are in EDT time to prevent confusion due to time zone crossing. See the LYM3418 flight status page for this flight to view local times or setup timezone preferences in your user account.

Time Position Orientation Groundspeed Altitude Reporting Facility
EDT Latitude Longitude Course Direction KTS MPH feet Rate Location/Type
Wed 08:13:54 AM 39.9000 -104.6667 294° West 159 183 8,100  Level Denver TRACON
Wed 08:14:48 AM 39.9167 -104.7167 237° Southwest 184 212 9,000 895 Climbing Denver TRACON
Wed 08:15:48 AM 39.8833 -104.7833 252° West 218 251 9,800 947 Climbing Denver TRACON
Wed 08:16:42 AM 39.8667 -104.8500 251° West 217 250 10,800 950 Climbing Denver TRACON
Wed 08:18:07 AM 39.8381 -104.9561 247° West 225 259 12,000 863 Climbing Denver Center
Wed 08:19:08 AM 39.8139 -105.0297 239° Southwest 231 266 12,900 1,091 Climbing Denver Center
Wed 08:20:08 AM 39.7814 -105.1006 237° Southwest 236 272 14,200 1,100 Climbing Denver Center
Wed 08:21:08 AM 39.7469 -105.1689 230° Southwest 236 272 15,100 1,050 Climbing Denver Center
Wed 08:22:08 AM 39.7078 -105.2289 235° Southwest 231 266 16,300 1,100 Climbing Denver Center
Wed 08:23:08 AM 39.6753 -105.2889 230° Southwest 220 253 17,300 756 Climbing Denver Center
Wed 08:24:07 AM 39.6383 -105.3461 240° Southwest 208 239 17,800 700 Climbing Denver Center
Wed 08:25:08 AM 39.6097 -105.4114 249° West 208 239 18,700 893 Climbing Denver Center
Wed 08:26:08 AM 39.5894 -105.4817 251° West 202 232 19,600 600 Climbing Denver Center
Wed 08:27:08 AM 39.5711 -105.5519 251° West 196 226 19,900 151 Climbing Denver Center
Wed 08:28:07 AM 39.5511 -105.6275 250° West 214 246 19,900 100 Level Denver Center
Wed 08:29:08 AM 39.5286 -105.7061 251° West 226 260 20,100 99 Climbing Denver Center
Wed 08:30:08 AM 39.5061 -105.7897 253° West 238 274 20,100 -50 Level Denver Center
Wed 08:31:08 AM 39.4858 -105.8733 250° West 243 280 20,000 -100 Descending Denver Center
Wed 08:32:08 AM 39.4633 -105.9542 234° Southwest 243 280 19,900  Descending Denver Center
Wed 08:33:08 AM 39.4258 -106.0217 214° Southwest 238 274 20,000 50 Climbing Denver Center
Wed 08:34:08 AM 39.3678 -106.0731 217° Southwest 247 284 20,000 -50 Level Denver Center
Wed 08:35:08 AM 39.3117 -106.1269 225° Southwest 257 296 19,900 -50 Descending Denver Center
Wed 08:36:08 AM 39.2722 -106.1781 221° Southwest 252 290 19,900 100 Level Denver Center
Wed 08:37:08 AM 39.2244 -106.2319 220° Southwest 238 274 20,100 100 Climbing Denver Center
Wed 08:38:08 AM 39.1722 -106.2883 218° Southwest 240 276 20,100  Level Denver Center
Wed 08:39:08 AM 39.1181 -106.3419 220° Southwest 245 282 20,100 -50 Level Denver Center
Wed 08:40:08 AM 39.0661 -106.3983 219° Southwest 250 288 20,000 -450 Descending Denver Center
Wed 08:41:08 AM 39.0097 -106.4572 216° Southwest 250 288 19,200 -850 Descending Denver Center
Wed 08:42:08 AM 38.9494 -106.5133 219° Southwest 261 300 18,300 -900 Descending Denver Center
Wed 08:43:08 AM 38.8889 -106.5772 212° Southwest 272 313 17,400 -950 Descending Denver Center
Wed 08:44:08 AM 38.8219 -106.6303 212° Southwest 279 321 16,400 -1,000 Descending Denver Center

Login

Don't have an account? Register now (free) for customized features, flight alerts, and more!